sensor_id;sensor_type;location;lat;lon;timestamp;P1;durP1;ratioP1;P2;durP2;ratioP2
19788;SDS011;10054;59.332;18.244;2024-02-26T00:01:46;115.37;;;10.27;;
19788;SDS011;10054;59.332;18.244;2024-02-26T00:04:14;29.40;;;7.90;;
19788;SDS011;10054;59.332;18.244;2024-02-26T00:06:44;29.60;;;7.47;;
19788;SDS011;10054;59.332;18.244;2024-02-26T00:09:13;11.67;;;6.97;;
19788;SDS011;10054;59.332;18.244;2024-02-26T00:11:42;10.40;;;6.77;;
19788;SDS011;10054;59.332;18.244;2024-02-26T00:14:11;15.20;;;6.90;;
19788;SDS011;10054;59.332;18.244;2024-02-26T00:16:40;10.07;;;7.10;;
19788;SDS011;10054;59.332;18.244;2024-02-26T00:19:11;17.70;;;7.10;;
19788;SDS011;10054;59.332;18.244;2024-02-26T00:21:43;10.60;;;7.00;;
19788;SDS011;10054;59.332;18.244;2024-02-26T00:24:12;10.40;;;6.40;;
19788;SDS011;10054;59.332;18.244;2024-02-26T00:26:41;10.93;;;6.67;;
19788;SDS011;10054;59.332;18.244;2024-02-26T00:29:10;8.37;;;6.10;;
19788;SDS011;10054;59.332;18.244;2024-02-26T00:31:39;10.03;;;6.60;;
19788;SDS011;10054;59.332;18.244;2024-02-26T00:34:08;9.70;;;6.13;;
19788;SDS011;10054;59.332;18.244;2024-02-26T00:36:36;8.03;;;5.87;;
19788;SDS011;10054;59.332;18.244;2024-02-26T00:39:05;8.37;;;5.77;;
19788;SDS011;10054;59.332;18.244;2024-02-26T00:41:37;8.73;;;5.90;;
19788;SDS011;10054;59.332;18.244;2024-02-26T00:44:08;8.43;;;6.47;;
19788;SDS011;10054;59.332;18.244;2024-02-26T00:46:37;9.00;;;6.13;;
19788;SDS011;10054;59.332;18.244;2024-02-26T00:49:06;7.03;;;5.80;;
19788;SDS011;10054;59.332;18.244;2024-02-26T00:51:35;7.07;;;5.60;;
19788;SDS011;10054;59.332;18.244;2024-02-26T00:54:04;7.00;;;5.57;;
19788;SDS011;10054;59.332;18.244;2024-02-26T00:56:33;6.90;;;5.03;;
19788;SDS011;10054;59.332;18.244;2024-02-26T00:59:02;6.83;;;4.90;;
19788;SDS011;10054;59.332;18.244;2024-02-26T01:01:31;9.07;;;5.90;;
19788;SDS011;10054;59.332;18.244;2024-02-26T01:04:00;8.10;;;5.93;;
19788;SDS011;10054;59.332;18.244;2024-02-26T01:06:29;9.17;;;5.70;;
19788;SDS011;10054;59.332;18.244;2024-02-26T01:08:58;519.40;;;23.77;;
19788;SDS011;10054;59.332;18.244;2024-02-26T01:11:27;9.10;;;6.33;;
19788;SDS011;10054;59.332;18.244;2024-02-26T01:13:56;7.67;;;6.00;;
19788;SDS011;10054;59.332;18.244;2024-02-26T01:16:26;6.67;;;5.50;;
19788;SDS011;10054;59.332;18.244;2024-02-26T01:18:56;8.10;;;5.43;;
19788;SDS011;10054;59.332;18.244;2024-02-26T01:21:24;7.37;;;6.03;;
19788;SDS011;10054;59.332;18.244;2024-02-26T01:23:54;7.27;;;5.40;;
19788;SDS011;10054;59.332;18.244;2024-02-26T01:26:24;8.67;;;6.07;;
19788;SDS011;10054;59.332;18.244;2024-02-26T01:28:52;8.87;;;6.10;;
19788;SDS011;10054;59.332;18.244;2024-02-26T01:31:22;8.23;;;6.33;;
19788;SDS011;10054;59.332;18.244;2024-02-26T01:33:51;8.53;;;6.37;;
19788;SDS011;10054;59.332;18.244;2024-02-26T01:36:19;8.80;;;6.60;;
19788;SDS011;10054;59.332;18.244;2024-02-26T01:38:48;8.53;;;6.23;;
19788;SDS011;10054;59.332;18.244;2024-02-26T01:41:17;7.20;;;5.97;;
19788;SDS011;10054;59.332;18.244;2024-02-26T01:43:46;8.40;;;6.67;;
19788;SDS011;10054;59.332;18.244;2024-02-26T01:46:15;13.03;;;6.30;;
19788;SDS011;10054;59.332;18.244;2024-02-26T01:48:45;7.93;;;6.00;;
19788;SDS011;10054;59.332;18.244;2024-02-26T01:51:16;12.60;;;6.10;;
19788;SDS011;10054;59.332;18.244;2024-02-26T01:53:45;9.53;;;6.27;;
19788;SDS011;10054;59.332;18.244;2024-02-26T01:56:14;8.20;;;6.00;;
19788;SDS011;10054;59.332;18.244;2024-02-26T01:58:44;9.40;;;6.50;;
19788;SDS011;10054;59.332;18.244;2024-02-26T02:01:14;9.83;;;7.13;;
19788;SDS011;10054;59.332;18.244;2024-02-26T02:03:45;9.43;;;6.93;;
19788;SDS011;10054;59.332;18.244;2024-02-26T02:06:15;8.60;;;6.33;;
19788;SDS011;10054;59.332;18.244;2024-02-26T02:08:44;8.93;;;6.77;;
19788;SDS011;10054;59.332;18.244;2024-02-26T02:11:13;9.13;;;6.53;;
19788;SDS011;10054;59.332;18.244;2024-02-26T02:13:44;8.90;;;7.07;;
19788;SDS011;10054;59.332;18.244;2024-02-26T02:16:13;9.50;;;5.93;;
19788;SDS011;10054;59.332;18.244;2024-02-26T02:18:42;8.70;;;6.73;;
19788;SDS011;10054;59.332;18.244;2024-02-26T02:21:11;8.90;;;6.33;;
19788;SDS011;10054;59.332;18.244;2024-02-26T02:23:39;9.90;;;6.50;;
19788;SDS011;10054;59.332;18.244;2024-02-26T02:26:10;10.40;;;6.03;;
19788;SDS011;10054;59.332;18.244;2024-02-26T02:28:39;7.97;;;6.10;;
19788;SDS011;10054;59.332;18.244;2024-02-26T02:31:08;8.67;;;6.33;;
19788;SDS011;10054;59.332;18.244;2024-02-26T02:33:38;7.37;;;6.23;;
19788;SDS011;10054;59.332;18.244;2024-02-26T02:36:07;8.87;;;6.60;;
19788;SDS011;10054;59.332;18.244;2024-02-26T02:38:37;7.97;;;6.13;;
19788;SDS011;10054;59.332;18.244;2024-02-26T02:41:08;11.43;;;6.47;;
19788;SDS011;10054;59.332;18.244;2024-02-26T02:43:37;9.03;;;6.33;;
19788;SDS011;10054;59.332;18.244;2024-02-26T02:46:06;32.33;;;6.87;;
19788;SDS011;10054;59.332;18.244;2024-02-26T02:48:35;24.40;;;6.80;;
19788;SDS011;10054;59.332;18.244;2024-02-26T02:51:04;39.70;;;7.03;;
19788;SDS011;10054;59.332;18.244;2024-02-26T02:53:33;86.93;;;8.37;;
19788;SDS011;10054;59.332;18.244;2024-02-26T02:56:02;81.50;;;8.27;;
19788;SDS011;10054;59.332;18.244;2024-02-26T02:58:32;41.63;;;7.70;;
19788;SDS011;10054;59.332;18.244;2024-02-26T03:01:01;120.07;;;9.17;;
19788;SDS011;10054;59.332;18.244;2024-02-26T03:03:30;73.93;;;8.50;;
19788;SDS011;10054;59.332;18.244;2024-02-26T03:05:59;56.27;;;8.10;;
19788;SDS011;10054;59.332;18.244;2024-02-26T03:08:28;90.70;;;7.90;;
19788;SDS011;10054;59.332;18.244;2024-02-26T03:10:58;45.53;;;6.80;;
19788;SDS011;10054;59.332;18.244;2024-02-26T03:13:27;55.53;;;7.47;;
19788;SDS011;10054;59.332;18.244;2024-02-26T03:15:56;60.20;;;8.00;;
19788;SDS011;10054;59.332;18.244;2024-02-26T03:18:26;46.77;;;8.03;;
19788;SDS011;10054;59.332;18.244;2024-02-26T03:20:55;53.80;;;8.03;;
19788;SDS011;10054;59.332;18.244;2024-02-26T03:23:23;45.80;;;7.37;;
19788;SDS011;10054;59.332;18.244;2024-02-26T03:25:52;27.00;;;7.40;;
19788;SDS011;10054;59.332;18.244;2024-02-26T03:28:22;21.63;;;7.70;;
19788;SDS011;10054;59.332;18.244;2024-02-26T03:30:51;31.17;;;7.10;;
19788;SDS011;10054;59.332;18.244;2024-02-26T03:33:20;45.53;;;7.37;;
19788;SDS011;10054;59.332;18.244;2024-02-26T03:35:49;32.33;;;7.90;;
19788;SDS011;10054;59.332;18.244;2024-02-26T03:38:18;40.03;;;7.60;;
19788;SDS011;10054;59.332;18.244;2024-02-26T03:40:46;74.40;;;8.13;;
19788;SDS011;10054;59.332;18.244;2024-02-26T03:43:16;44.70;;;7.13;;
19788;SDS011;10054;59.332;18.244;2024-02-26T03:45:45;50.07;;;8.30;;
19788;SDS011;10054;59.332;18.244;2024-02-26T03:48:14;24.50;;;7.17;;
19788;SDS011;10054;59.332;18.244;2024-02-26T03:50:43;15.13;;;6.67;;
19788;SDS011;10054;59.332;18.244;2024-02-26T03:53:12;21.87;;;7.00;;
19788;SDS011;10054;59.332;18.244;2024-02-26T03:55:41;14.30;;;7.30;;
19788;SDS011;10054;59.332;18.244;2024-02-26T03:58:12;13.93;;;7.23;;
19788;SDS011;10054;59.332;18.244;2024-02-26T04:00:42;12.27;;;7.50;;
19788;SDS011;10054;59.332;18.244;2024-02-26T04:03:11;13.10;;;7.53;;
19788;SDS011;10054;59.332;18.244;2024-02-26T04:05:40;11.17;;;7.87;;
19788;SDS011;10054;59.332;18.244;2024-02-26T04:08:08;10.23;;;7.30;;
19788;SDS011;10054;59.332;18.244;2024-02-26T04:10:38;9.77;;;7.03;;
19788;SDS011;10054;59.332;18.244;2024-02-26T04:13:07;10.03;;;7.40;;
19788;SDS011;10054;59.332;18.244;2024-02-26T04:15:36;12.23;;;7.30;;
19788;SDS011;10054;59.332;18.244;2024-02-26T04:18:05;11.47;;;7.47;;
19788;SDS011;10054;59.332;18.244;2024-02-26T04:20:34;12.27;;;6.90;;
19788;SDS011;10054;59.332;18.244;2024-02-26T04:23:03;10.87;;;6.67;;
19788;SDS011;10054;59.332;18.244;2024-02-26T04:25:32;10.47;;;7.40;;
19788;SDS011;10054;59.332;18.244;2024-02-26T04:28:02;9.27;;;6.90;;
19788;SDS011;10054;59.332;18.244;2024-02-26T04:30:31;10.37;;;7.20;;
19788;SDS011;10054;59.332;18.244;2024-02-26T04:33:00;11.63;;;7.53;;
19788;SDS011;10054;59.332;18.244;2024-02-26T04:35:29;9.97;;;7.30;;
19788;SDS011;10054;59.332;18.244;2024-02-26T04:37:58;9.40;;;6.80;;
19788;SDS011;10054;59.332;18.244;2024-02-26T04:40:27;9.87;;;7.10;;
19788;SDS011;10054;59.332;18.244;2024-02-26T04:42:56;9.33;;;6.60;;
19788;SDS011;10054;59.332;18.244;2024-02-26T04:45:24;9.13;;;6.70;;
19788;SDS011;10054;59.332;18.244;2024-02-26T04:47:54;9.63;;;6.30;;
19788;SDS011;10054;59.332;18.244;2024-02-26T04:50:23;8.00;;;6.20;;
19788;SDS011;10054;59.332;18.244;2024-02-26T04:52:52;8.60;;;6.33;;
19788;SDS011;10054;59.332;18.244;2024-02-26T04:55:21;8.57;;;5.60;;
19788;SDS011;10054;59.332;18.244;2024-02-26T04:57:49;10.27;;;6.70;;
19788;SDS011;10054;59.332;18.244;2024-02-26T05:00:18;12.07;;;7.00;;
19788;SDS011;10054;59.332;18.244;2024-02-26T05:02:47;8.77;;;6.67;;
19788;SDS011;10054;59.332;18.244;2024-02-26T05:05:16;9.40;;;7.47;;
19788;SDS011;10054;59.332;18.244;2024-02-26T05:07:45;8.80;;;6.93;;
19788;SDS011;10054;59.332;18.244;2024-02-26T05:10:14;8.77;;;6.67;;
19788;SDS011;10054;59.332;18.244;2024-02-26T05:12:44;7.40;;;5.97;;
19788;SDS011;10054;59.332;18.244;2024-02-26T05:15:13;9.60;;;7.17;;
19788;SDS011;10054;59.332;18.244;2024-02-26T05:17:43;8.70;;;6.90;;
19788;SDS011;10054;59.332;18.244;2024-02-26T05:20:13;9.70;;;7.43;;
19788;SDS011;10054;59.332;18.244;2024-02-26T05:22:42;9.57;;;7.33;;
19788;SDS011;10054;59.332;18.244;2024-02-26T05:25:11;10.00;;;6.93;;
19788;SDS011;10054;59.332;18.244;2024-02-26T05:27:41;9.07;;;7.43;;
19788;SDS011;10054;59.332;18.244;2024-02-26T05:30:11;9.63;;;7.40;;
19788;SDS011;10054;59.332;18.244;2024-02-26T05:32:40;9.43;;;7.27;;
19788;SDS011;10054;59.332;18.244;2024-02-26T05:35:09;13.07;;;7.93;;
19788;SDS011;10054;59.332;18.244;2024-02-26T05:37:38;11.27;;;7.40;;
19788;SDS011;10054;59.332;18.244;2024-02-26T05:40:07;10.80;;;7.97;;
19788;SDS011;10054;59.332;18.244;2024-02-26T05:42:36;9.20;;;7.63;;
19788;SDS011;10054;59.332;18.244;2024-02-26T05:45:05;9.80;;;7.40;;
19788;SDS011;10054;59.332;18.244;2024-02-26T05:47:35;9.57;;;6.77;;
19788;SDS011;10054;59.332;18.244;2024-02-26T05:50:08;8.50;;;7.17;;
19788;SDS011;10054;59.332;18.244;2024-02-26T05:52:37;9.27;;;6.87;;
19788;SDS011;10054;59.332;18.244;2024-02-26T05:55:07;8.03;;;6.53;;
19788;SDS011;10054;59.332;18.244;2024-02-26T05:57:36;16.40;;;6.67;;
19788;SDS011;10054;59.332;18.244;2024-02-26T06:00:05;64.80;;;10.30;;
19788;SDS011;10054;59.332;18.244;2024-02-26T06:02:38;9.30;;;7.73;;
19788;SDS011;10054;59.332;18.244;2024-02-26T06:05:07;8.30;;;7.03;;
19788;SDS011;10054;59.332;18.244;2024-02-26T06:07:37;7.93;;;6.97;;
19788;SDS011;10054;59.332;18.244;2024-02-26T06:10:06;10.17;;;6.90;;
19788;SDS011;10054;59.332;18.244;2024-02-26T06:12:35;12.10;;;7.40;;
19788;SDS011;10054;59.332;18.244;2024-02-26T06:15:04;8.47;;;6.43;;
19788;SDS011;10054;59.332;18.244;2024-02-26T06:17:34;9.03;;;6.83;;
19788;SDS011;10054;59.332;18.244;2024-02-26T06:20:03;11.63;;;6.97;;
19788;SDS011;10054;59.332;18.244;2024-02-26T06:22:33;7.90;;;6.23;;
19788;SDS011;10054;59.332;18.244;2024-02-26T06:25:01;9.23;;;7.57;;
19788;SDS011;10054;59.332;18.244;2024-02-26T06:27:31;11.00;;;7.70;;
19788;SDS011;10054;59.332;18.244;2024-02-26T06:29:59;11.23;;;7.57;;
19788;SDS011;10054;59.332;18.244;2024-02-26T06:32:29;10.13;;;6.87;;
19788;SDS011;10054;59.332;18.244;2024-02-26T06:34:58;9.67;;;6.90;;
19788;SDS011;10054;59.332;18.244;2024-02-26T06:37:27;8.50;;;7.10;;
19788;SDS011;10054;59.332;18.244;2024-02-26T06:39:56;8.40;;;6.43;;
19788;SDS011;10054;59.332;18.244;2024-02-26T06:42:25;7.80;;;6.93;;
19788;SDS011;10054;59.332;18.244;2024-02-26T06:44:55;7.63;;;6.67;;
19788;SDS011;10054;59.332;18.244;2024-02-26T06:47:24;10.93;;;7.20;;
19788;SDS011;10054;59.332;18.244;2024-02-26T06:49:53;8.80;;;6.97;;
19788;SDS011;10054;59.332;18.244;2024-02-26T06:52:24;11.77;;;7.67;;
19788;SDS011;10054;59.332;18.244;2024-02-26T06:54:53;8.23;;;7.23;;
19788;SDS011;10054;59.332;18.244;2024-02-26T06:57:23;9.23;;;7.00;;
19788;SDS011;10054;59.332;18.244;2024-02-26T06:59:52;9.23;;;7.40;;
19788;SDS011;10054;59.332;18.244;2024-02-26T07:02:21;9.90;;;7.50;;
19788;SDS011;10054;59.332;18.244;2024-02-26T07:04:50;9.80;;;7.57;;
19788;SDS011;10054;59.332;18.244;2024-02-26T07:07:20;10.53;;;6.80;;
19788;SDS011;10054;59.332;18.244;2024-02-26T07:09:50;12.30;;;7.57;;
19788;SDS011;10054;59.332;18.244;2024-02-26T07:12:19;8.60;;;7.03;;
19788;SDS011;10054;59.332;18.244;2024-02-26T07:14:48;9.77;;;7.23;;
19788;SDS011;10054;59.332;18.244;2024-02-26T07:17:18;10.73;;;7.20;;
19788;SDS011;10054;59.332;18.244;2024-02-26T07:19:47;10.93;;;7.50;;
19788;SDS011;10054;59.332;18.244;2024-02-26T07:22:17;9.60;;;7.67;;
19788;SDS011;10054;59.332;18.244;2024-02-26T07:24:46;106.07;;;11.07;;
19788;SDS011;10054;59.332;18.244;2024-02-26T07:27:14;24.27;;;7.57;;
19788;SDS011;10054;59.332;18.244;2024-02-26T07:29:44;112.53;;;8.97;;
19788;SDS011;10054;59.332;18.244;2024-02-26T07:32:13;158.30;;;9.57;;
19788;SDS011;10054;59.332;18.244;2024-02-26T07:34:42;87.73;;;8.43;;
19788;SDS011;10054;59.332;18.244;2024-02-26T07:37:11;184.03;;;9.50;;
19788;SDS011;10054;59.332;18.244;2024-02-26T07:39:40;184.43;;;8.67;;
19788;SDS011;10054;59.332;18.244;2024-02-26T07:42:09;83.03;;;7.93;;
19788;SDS011;10054;59.332;18.244;2024-02-26T07:44:38;153.30;;;8.63;;
19788;SDS011;10054;59.332;18.244;2024-02-26T07:47:09;160.30;;;9.77;;
19788;SDS011;10054;59.332;18.244;2024-02-26T07:49:39;160.40;;;8.70;;
19788;SDS011;10054;59.332;18.244;2024-02-26T07:52:08;230.53;;;10.23;;
19788;SDS011;10054;59.332;18.244;2024-02-26T07:54:37;174.47;;;8.37;;
19788;SDS011;10054;59.332;18.244;2024-02-26T07:57:06;133.53;;;8.53;;
19788;SDS011;10054;59.332;18.244;2024-02-26T07:59:35;106.70;;;7.60;;
19788;SDS011;10054;59.332;18.244;2024-02-26T08:02:04;179.00;;;7.87;;
19788;SDS011;10054;59.332;18.244;2024-02-26T08:04:34;103.20;;;7.10;;
19788;SDS011;10054;59.332;18.244;2024-02-26T08:07:03;146.30;;;8.17;;
19788;SDS011;10054;59.332;18.244;2024-02-26T08:09:33;134.23;;;8.37;;
19788;SDS011;10054;59.332;18.244;2024-02-26T08:12:02;110.77;;;8.50;;
19788;SDS011;10054;59.332;18.244;2024-02-26T08:14:32;58.93;;;6.60;;
19788;SDS011;10054;59.332;18.244;2024-02-26T08:17:01;128.10;;;8.30;;
19788;SDS011;10054;59.332;18.244;2024-02-26T08:19:30;138.73;;;8.13;;
19788;SDS011;10054;59.332;18.244;2024-02-26T08:21:59;50.87;;;6.53;;
19788;SDS011;10054;59.332;18.244;2024-02-26T08:24:28;72.00;;;6.70;;
19788;SDS011;10054;59.332;18.244;2024-02-26T08:26:57;86.03;;;7.07;;
19788;SDS011;10054;59.332;18.244;2024-02-26T08:29:26;65.97;;;6.63;;
19788;SDS011;10054;59.332;18.244;2024-02-26T08:31:55;82.30;;;7.07;;
19788;SDS011;10054;59.332;18.244;2024-02-26T08:34:24;60.37;;;6.90;;
19788;SDS011;10054;59.332;18.244;2024-02-26T08:36:53;76.90;;;6.60;;
19788;SDS011;10054;59.332;18.244;2024-02-26T08:39:22;77.37;;;6.53;;
19788;SDS011;10054;59.332;18.244;2024-02-26T08:41:52;63.80;;;7.33;;
19788;SDS011;10054;59.332;18.244;2024-02-26T08:44:21;67.43;;;6.30;;
19788;SDS011;10054;59.332;18.244;2024-02-26T08:46:52;77.33;;;6.63;;
19788;SDS011;10054;59.332;18.244;2024-02-26T08:49:21;24.43;;;5.87;;
19788;SDS011;10054;59.332;18.244;2024-02-26T08:51:50;51.50;;;6.93;;
19788;SDS011;10054;59.332;18.244;2024-02-26T08:54:19;42.07;;;6.50;;
19788;SDS011;10054;59.332;18.244;2024-02-26T08:56:48;36.97;;;6.80;;
19788;SDS011;10054;59.332;18.244;2024-02-26T08:59:17;54.50;;;7.07;;
19788;SDS011;10054;59.332;18.244;2024-02-26T09:01:48;25.23;;;7.30;;
19788;SDS011;10054;59.332;18.244;2024-02-26T09:04:16;86.93;;;8.50;;
19788;SDS011;10054;59.332;18.244;2024-02-26T09:06:46;73.03;;;7.60;;
19788;SDS011;10054;59.332;18.244;2024-02-26T09:09:15;54.77;;;8.33;;
19788;SDS011;10054;59.332;18.244;2024-02-26T09:11:44;86.23;;;8.37;;
19788;SDS011;10054;59.332;18.244;2024-02-26T09:14:13;81.03;;;7.57;;
19788;SDS011;10054;59.332;18.244;2024-02-26T09:16:43;21.03;;;6.53;;
19788;SDS011;10054;59.332;18.244;2024-02-26T09:19:12;139.97;;;8.60;;
19788;SDS011;10054;59.332;18.244;2024-02-26T09:21:44;53.47;;;7.90;;
19788;SDS011;10054;59.332;18.244;2024-02-26T09:24:14;92.50;;;8.97;;
19788;SDS011;10054;59.332;18.244;2024-02-26T09:26:43;80.00;;;7.87;;
19788;SDS011;10054;59.332;18.244;2024-02-26T09:29:11;103.53;;;8.97;;
19788;SDS011;10054;59.332;18.244;2024-02-26T09:31:41;84.23;;;8.10;;
19788;SDS011;10054;59.332;18.244;2024-02-26T09:34:11;105.70;;;8.60;;
19788;SDS011;10054;59.332;18.244;2024-02-26T09:36:40;112.80;;;9.53;;
19788;SDS011;10054;59.332;18.244;2024-02-26T09:39:09;175.27;;;10.73;;
19788;SDS011;10054;59.332;18.244;2024-02-26T09:41:39;175.47;;;9.43;;
19788;SDS011;10054;59.332;18.244;2024-02-26T09:44:08;73.33;;;8.30;;
19788;SDS011;10054;59.332;18.244;2024-02-26T09:46:38;283.07;;;11.90;;
19788;SDS011;10054;59.332;18.244;2024-02-26T09:49:08;264.73;;;11.10;;
19788;SDS011;10054;59.332;18.244;2024-02-26T09:51:39;191.17;;;9.77;;
19788;SDS011;10054;59.332;18.244;2024-02-26T09:54:09;279.93;;;11.83;;
19788;SDS011;10054;59.332;18.244;2024-02-26T09:56:40;348.57;;;13.37;;
19788;SDS011;10054;59.332;18.244;2024-02-26T09:59:10;270.03;;;10.80;;
19788;SDS011;10054;59.332;18.244;2024-02-26T10:01:42;295.07;;;11.80;;
19788;SDS011;10054;59.332;18.244;2024-02-26T10:04:12;266.53;;;11.03;;
19788;SDS011;10054;59.332;18.244;2024-02-26T10:06:42;235.93;;;10.17;;
19788;SDS011;10054;59.332;18.244;2024-02-26T10:09:13;148.60;;;9.33;;
19788;SDS011;10054;59.332;18.244;2024-02-26T10:11:42;284.77;;;10.77;;
19788;SDS011;10054;59.332;18.244;2024-02-26T10:14:12;92.80;;;7.07;;
19788;SDS011;10054;59.332;18.244;2024-02-26T10:16:43;172.33;;;8.00;;
19788;SDS011;10054;59.332;18.244;2024-02-26T10:19:24;74.60;;;6.23;;
19788;SDS011;10054;59.332;18.244;2024-02-26T10:21:57;53.40;;;5.57;;
19788;SDS011;10054;59.332;18.244;2024-02-26T10:24:28;58.13;;;5.70;;
19788;SDS011;10054;59.332;18.244;2024-02-26T10:26:57;43.93;;;6.37;;
19788;SDS011;10054;59.332;18.244;2024-02-26T10:29:27;67.90;;;6.73;;
19788;SDS011;10054;59.332;18.244;2024-02-26T10:31:56;41.80;;;6.20;;
19788;SDS011;10054;59.332;18.244;2024-02-26T10:34:25;87.90;;;7.27;;
19788;SDS011;10054;59.332;18.244;2024-02-26T10:36:55;73.90;;;6.40;;
19788;SDS011;10054;59.332;18.244;2024-02-26T10:39:25;91.83;;;7.80;;
19788;SDS011;10054;59.332;18.244;2024-02-26T10:41:53;63.80;;;6.80;;
19788;SDS011;10054;59.332;18.244;2024-02-26T10:44:22;86.93;;;6.77;;
19788;SDS011;10054;59.332;18.244;2024-02-26T10:46:53;112.40;;;6.90;;
19788;SDS011;10054;59.332;18.244;2024-02-26T10:49:23;39.97;;;5.63;;
19788;SDS011;10054;59.332;18.244;2024-02-26T10:51:54;39.27;;;5.07;;
19788;SDS011;10054;59.332;18.244;2024-02-26T10:54:26;49.77;;;5.40;;
19788;SDS011;10054;59.332;18.244;2024-02-26T10:56:56;157.30;;;7.47;;
19788;SDS011;10054;59.332;18.244;2024-02-26T10:59:26;52.57;;;5.67;;
19788;SDS011;10054;59.332;18.244;2024-02-26T11:01:55;119.87;;;8.03;;
19788;SDS011;10054;59.332;18.244;2024-02-26T11:04:25;99.77;;;8.07;;
19788;SDS011;10054;59.332;18.244;2024-02-26T11:06:56;49.50;;;7.63;;
19788;SDS011;10054;59.332;18.244;2024-02-26T11:09:27;51.13;;;6.50;;
19788;SDS011;10054;59.332;18.244;2024-02-26T11:11:57;77.07;;;7.30;;
19788;SDS011;10054;59.332;18.244;2024-02-26T11:14:27;110.47;;;7.13;;
19788;SDS011;10054;59.332;18.244;2024-02-26T11:16:59;57.50;;;6.77;;
19788;SDS011;10054;59.332;18.244;2024-02-26T11:19:29;65.83;;;8.90;;
19788;SDS011;10054;59.332;18.244;2024-02-26T11:22:00;79.70;;;7.80;;
19788;SDS011;10054;59.332;18.244;2024-02-26T11:24:29;35.93;;;5.47;;
19788;SDS011;10054;59.332;18.244;2024-02-26T11:27:01;91.33;;;7.10;;
19788;SDS011;10054;59.332;18.244;2024-02-26T11:29:39;30.77;;;5.40;;
19788;SDS011;10054;59.332;18.244;2024-02-26T11:32:10;8.17;;;4.80;;
19788;SDS011;10054;59.332;18.244;2024-02-26T11:34:39;6.57;;;5.10;;
19788;SDS011;10054;59.332;18.244;2024-02-26T11:37:13;5.60;;;4.33;;
19788;SDS011;10054;59.332;18.244;2024-02-26T11:39:44;4.80;;;4.30;;
19788;SDS011;10054;59.332;18.244;2024-02-26T11:42:14;4.67;;;4.27;;
19788;SDS011;10054;59.332;18.244;2024-02-26T11:44:44;6.03;;;3.93;;
19788;SDS011;10054;59.332;18.244;2024-02-26T11:47:18;4.63;;;3.93;;
19788;SDS011;10054;59.332;18.244;2024-02-26T11:49:48;6.43;;;4.77;;
19788;SDS011;10054;59.332;18.244;2024-02-26T11:52:17;4.90;;;4.10;;
19788;SDS011;10054;59.332;18.244;2024-02-26T11:54:50;8.73;;;4.60;;
19788;SDS011;10054;59.332;18.244;2024-02-26T11:57:30;5.00;;;4.50;;
19788;SDS011;10054;59.332;18.244;2024-02-26T12:02:45;4.97;;;4.47;;
19788;SDS011;10054;59.332;18.244;2024-02-26T12:05:17;9.57;;;6.07;;
19788;SDS011;10054;59.332;18.244;2024-02-26T12:07:47;22.03;;;7.70;;
19788;SDS011;10054;59.332;18.244;2024-02-26T12:10:36;6.73;;;5.00;;
19788;SDS011;10054;59.332;18.244;2024-02-26T12:15:43;7.70;;;5.40;;
19788;SDS011;10054;59.332;18.244;2024-02-26T12:18:17;8.50;;;5.30;;
19788;SDS011;10054;59.332;18.244;2024-02-26T12:20:47;5.63;;;4.70;;
19788;SDS011;10054;59.332;18.244;2024-02-26T12:23:30;18.97;;;5.27;;
19788;SDS011;10054;59.332;18.244;2024-02-26T12:25:59;52.37;;;6.50;;
19788;SDS011;10054;59.332;18.244;2024-02-26T12:28:30;6.00;;;4.63;;
19788;SDS011;10054;59.332;18.244;2024-02-26T12:30:59;14.13;;;5.60;;
19788;SDS011;10054;59.332;18.244;2024-02-26T12:33:28;5.40;;;4.90;;
19788;SDS011;10054;59.332;18.244;2024-02-26T12:35:58;6.10;;;5.50;;
19788;SDS011;10054;59.332;18.244;2024-02-26T12:38:27;8.03;;;6.33;;
19788;SDS011;10054;59.332;18.244;2024-02-26T12:40:56;7.07;;;5.60;;
19788;SDS011;10054;59.332;18.244;2024-02-26T12:43:25;23.07;;;5.60;;
19788;SDS011;10054;59.332;18.244;2024-02-26T12:45:55;6.27;;;5.57;;
19788;SDS011;10054;59.332;18.244;2024-02-26T12:48:24;11.97;;;5.53;;
19788;SDS011;10054;59.332;18.244;2024-02-26T12:50:53;10.30;;;5.97;;
19788;SDS011;10054;59.332;18.244;2024-02-26T12:53:22;12.27;;;5.93;;
19788;SDS011;10054;59.332;18.244;2024-02-26T12:55:57;35.10;;;6.50;;
19788;SDS011;10054;59.332;18.244;2024-02-26T12:58:22;9.40;;;6.17;;
19788;SDS011;10054;59.332;18.244;2024-02-26T13:00:54;37.90;;;6.17;;
19788;SDS011;10054;59.332;18.244;2024-02-26T13:03:24;10.83;;;5.87;;
19788;SDS011;10054;59.332;18.244;2024-02-26T13:05:54;14.53;;;5.90;;
19788;SDS011;10054;59.332;18.244;2024-02-26T13:08:24;19.77;;;5.57;;
19788;SDS011;10054;59.332;18.244;2024-02-26T13:10:53;42.90;;;6.93;;
19788;SDS011;10054;59.332;18.244;2024-02-26T13:13:22;12.93;;;5.60;;
19788;SDS011;10054;59.332;18.244;2024-02-26T13:16:01;17.10;;;6.57;;
19788;SDS011;10054;59.332;18.244;2024-02-26T13:18:33;18.57;;;6.43;;
19788;SDS011;10054;59.332;18.244;2024-02-26T13:21:10;32.53;;;6.33;;
19788;SDS011;10054;59.332;18.244;2024-02-26T13:23:42;20.83;;;7.10;;
19788;SDS011;10054;59.332;18.244;2024-02-26T13:26:13;18.30;;;6.80;;
19788;SDS011;10054;59.332;18.244;2024-02-26T13:28:42;64.20;;;7.50;;
19788;SDS011;10054;59.332;18.244;2024-02-26T13:31:12;53.67;;;7.63;;
19788;SDS011;10054;59.332;18.244;2024-02-26T13:33:41;17.50;;;7.30;;
19788;SDS011;10054;59.332;18.244;2024-02-26T13:36:11;38.20;;;8.23;;
19788;SDS011;10054;59.332;18.244;2024-02-26T13:38:41;11.70;;;7.80;;
19788;SDS011;10054;59.332;18.244;2024-02-26T13:41:13;12.90;;;8.10;;
19788;SDS011;10054;59.332;18.244;2024-02-26T13:43:42;10.50;;;8.60;;
19788;SDS011;10054;59.332;18.244;2024-02-26T13:46:11;10.77;;;9.17;;
19788;SDS011;10054;59.332;18.244;2024-02-26T13:48:41;10.83;;;8.37;;
19788;SDS011;10054;59.332;18.244;2024-02-26T13:51:11;10.23;;;7.67;;
19788;SDS011;10054;59.332;18.244;2024-02-26T13:53:40;9.70;;;8.67;;
19788;SDS011;10054;59.332;18.244;2024-02-26T13:56:09;10.03;;;8.23;;
19788;SDS011;10054;59.332;18.244;2024-02-26T13:58:38;11.17;;;9.00;;
19788;SDS011;10054;59.332;18.244;2024-02-26T14:01:07;9.77;;;8.67;;
19788;SDS011;10054;59.332;18.244;2024-02-26T14:03:36;12.17;;;8.67;;
19788;SDS011;10054;59.332;18.244;2024-02-26T14:06:05;10.53;;;8.60;;
19788;SDS011;10054;59.332;18.244;2024-02-26T14:08:34;10.13;;;8.60;;
19788;SDS011;10054;59.332;18.244;2024-02-26T14:11:03;11.47;;;8.37;;
19788;SDS011;10054;59.332;18.244;2024-02-26T14:13:32;10.07;;;8.37;;
19788;SDS011;10054;59.332;18.244;2024-02-26T14:16:03;9.10;;;8.10;;
19788;SDS011;10054;59.332;18.244;2024-02-26T14:18:31;8.87;;;7.97;;
19788;SDS011;10054;59.332;18.244;2024-02-26T14:21:00;9.83;;;7.87;;
19788;SDS011;10054;59.332;18.244;2024-02-26T14:23:29;9.53;;;8.07;;
19788;SDS011;10054;59.332;18.244;2024-02-26T14:25:59;7.60;;;6.80;;
19788;SDS011;10054;59.332;18.244;2024-02-26T14:28:28;8.23;;;7.37;;
19788;SDS011;10054;59.332;18.244;2024-02-26T14:30:58;9.23;;;7.53;;
19788;SDS011;10054;59.332;18.244;2024-02-26T14:33:27;8.00;;;7.20;;
19788;SDS011;10054;59.332;18.244;2024-02-26T14:35:56;9.17;;;7.63;;
19788;SDS011;10054;59.332;18.244;2024-02-26T14:38:25;8.97;;;7.50;;
19788;SDS011;10054;59.332;18.244;2024-02-26T14:40:54;8.10;;;7.30;;
19788;SDS011;10054;59.332;18.244;2024-02-26T14:43:23;9.37;;;7.60;;